Airfield :
LOGIN :

Register | Disclaimer

   EN    FR    IT 

 










Legend :    VFR   Marginal VFR   IFR   Intensive IFR   Very Intensive IFR
Visi :
Ceiling :
>= 8 km
>= 3000ft
5 to 8 km
1000 to 3000 ft
1500m to 5 km
500 to 1000 ft
800 to 1500m
200 to 500 ft
< 800m
< 200 ft
Symbols :   Thunderstorms  Fog  Heavy snow  Heavy precipitations  Wind > 20 kt
SIGMETs :     Misc.  Thunderstorms  Icing  Turbulence  Mountain Waves  Volcanic Ashes






- Airport Elevation : 479 ft
- IATA code : DOL


LFRG - Deauville

CURRENT METAR :
  • 090930Z AUTO 31016G26KT 270V350 9999 BKN030/// OVC036/// ///CB 10/05 Q1009 TEMPO 4000 SHRA BECMG 31025G45KT BKN030

EXPIRED METARs :
  • 090900Z AUTO 30019G33KT 270V330 9999 BKN031/// OVC038/// ///CB 10/05 Q1007 TEMPO 4000 SHRA BECMG 31025G45KT
  • 090830Z AUTO 30016G31KT 270V340 9999 BKN030 BKN037 OVC048 10/05 Q1006 TEMPO 4000 SHRA BKN015TCU BECMG 31025G45KT
  • 090800Z AUTO 30017G34KT 260V340 9999 FEW022/// SCT031/// BKN047/// ///CB 09/06 Q1005 TEMPO 30030G50KT 4000 SHRA
  • 090730Z AUTO 29021G36KT 260V330 9999 BKN030/// BKN035/// OVC044/// ///TCU 10/06 Q1004 TEMPO 30030G50KT 4000 SHRA BKN015CB
  • 090700Z AUTO 29021G31KT 260V330 9999 SCT021/// OVC027/// ///CB 10/07 Q1003 TEMPO 30030G50KT 2000 TSRAGS

TAF TAF LFRG
Valid from the 09 at 09:00 until the 09 at 18:00 UTC


090800Z 0909/0918 31025G45KT 9999 BKN030
TEMPO 0909/0911 4000 SHRA BKN015TCU
BECMG 0912/0914 32015G35KT
BECMG 0916/0918 33015G25KT
ATIS : +33 2 31 65 65 36



MET'MAP, your aeronautical weather chart ! - Copyright ORBIFLY December 2007 - Disclaimer

ORBIFLY MET'MAP TEAM :

Programming & Development : Alexandra Zaïnal
Concept & original design : Baudouin d'Aumeries
Assistance for programming : Marc-Olivier Méhu
Technical & hardware support : Manuel Goepfert

Contact : metmap@orbifly.com




SOURCES & CREDITS :

   NOAA